Flight Track Log - Related Links

Times and Time Zones

All times are in EDT time to prevent confusion due to time zone crossing. See the EJA929 flight status page for this flight to view local times or setup timezone preferences in your user account.

Time Position Orientation Groundspeed Altitude Reporting Facility
EDT Latitude Longitude Course Direction KTS MPH feet Rate Location/Type
Thu 22:12:08 34.1600 -118.4867 340° North 210 242 1,900  Level Los Angeles Center
Thu 22:13:10 34.1344 -118.5383 239° Southwest 232 267 4,300 2,032 Climbing Los Angeles Center
Thu 22:14:12 34.1956 -118.5764 333° Northwest 253 291 6,100 2,371 Climbing Los Angeles Center
Thu 22:15:14 34.2658 -118.6086 339° North 268 308 9,200 3,000 Climbing Los Angeles Center
Thu 22:16:16 34.3464 -118.6464 339° North 285 328 12,300 2,855 Climbing Los Angeles Center
Thu 22:17:00 34.6022 -118.7546 340° North  Level FlightAware Approximate
Thu 22:17:18 34.4375 -118.6886 339° North 311 358 15,100  Level Los Angeles Center
Thu 22:18:19 34.5189 -118.7267 339° North 313 360 18,000 2,293 Climbing Los Angeles Center
Thu 22:19:21 34.6036 -118.7667 339° North 326 375 19,800 1,210 Climbing Los Angeles Center
Thu 22:20:23 34.7017 -118.8136 339° North 374 430 20,500 1,016 Climbing Los Angeles Center
Thu 22:21:25 34.8061 -118.8656 338° Northwest 403 464 21,900 1,403 Climbing Los Angeles Center
Thu 22:22:27 34.8997 -118.9414 326° Northwest 408 470 23,400 1,548 Climbing Los Angeles Center
Thu 22:23:29 35.0158 -119.0383 326° Northwest 419 482 25,100 1,694 Climbing Los Angeles Center
Thu 22:24:31 35.1178 -119.1214 326° Northwest 434 499 26,900 1,415 Climbing Los Angeles Center
Thu 22:25:32 35.1889 -119.2400 306° West 443 510 28,000 537 Climbing Los Angeles Center
Thu 22:26:34 35.2503 -119.3756 299° West 457 526 28,000  Level Los Angeles Center
Thu 22:27:36 35.3164 -119.5189 300° West 485 558 28,000  Level Los Angeles Center
Thu 22:28:34 35.3811 -119.6617 299° West 489 563 28,000  Level Oakland Center
Thu 22:29:35 35.4450 -119.8019 299° West 479 551 28,000  Level Oakland Center
Thu 22:30:36 35.5081 -119.9408 299° West 471 542 28,000  Level Oakland Center
Thu 22:31:37 35.5714 -120.0822 299° West 479 551 28,000  Level Oakland Center
Thu 22:32:38 35.6481 -120.2525 299° West 483 556 28,000  Level Oakland Center
Thu 22:33:39 35.7094 -120.3939 298° West 479 551 28,000  Level Oakland Center
Thu 22:34:40 35.7828 -120.5283 304° West 483 556 28,000  Level Oakland Center
Thu 22:35:42 35.8753 -120.6500 313° West 488 562 28,000  Level Oakland Center
Thu 22:36:43 35.9678 -120.7714 313° West 487 560 28,000  Level Oakland Center
Thu 22:37:44 36.0603 -120.8933 313° West 487 560 28,000  Level Oakland Center
Thu 22:38:45 36.1511 -121.0136 313° West 482 555 28,000 -885 Level Oakland Center
Thu 22:39:46 36.2378 -121.1300 313° West 467 537 26,200 -2,311 Descending Oakland Center
Thu 22:40:47 36.3419 -121.2683 313° West 460 529 23,300 -2,557 Descending Oakland Center
Thu 22:41:48 36.4217 -121.3769 312° West 434 499 21,000 -2,341 Descending Oakland Center
Thu 22:42:50 36.5056 -121.4742 317° Northwest 419 482 18,500 -2,146 Descending Oakland Center
Thu 22:43:51 36.5983 -121.5481 327° Northwest 399 459 16,600 -2,016 Descending Oakland Center
Thu 22:44:52 36.6925 -121.5950 338° Northwest 371 427 14,400 -2,066 Descending Oakland Center
Thu 22:45:53 36.7847 -121.6161 350° North 346 398 12,400 -1,967 Descending Oakland Center
Thu 22:46:54 36.8764 -121.6408 348° North 315 362 10,400 -1,402 Descending Oakland Center
Thu 22:48:57 37.0211 -121.6769 349° North 265 305 8,100 -1,207 Descending Oakland Center
Thu 22:49:58 37.0872 -121.6953 348° North 268 308 6,700 -1,525 Descending Oakland Center
Thu 22:50:59 37.1669 -121.7156 349° North 267 307 5,000 -1,082 Descending Oakland Center
Thu 22:52:00 37.2153 -121.7697 318° Northwest 244 281 4,500 -878 Descending Oakland Center
Thu 22:53:02 37.2578 -121.8186 318° Northwest 224 258 3,200 -1,317 Descending Oakland Center
Thu 22:54:03 37.2911 -121.8522 321° Northwest 181 208 1,800 -1,033 Descending Oakland Center
Thu 22:55:04 37.3169 -121.8825 317° Northwest 149 171 1,100 -738 Descending Oakland Center
Thu 22:56:05 37.3483 -121.9153 320° Northwest 130 150 300 -787 Descending Oakland Center
Thu 22:58:00 37.3500 -121.9167 North  Level FlightAware Approximate

Login

Don't have an account? Register now (free) for customized features, flight alerts, and more!